Time;durP1;ratioP1;P1;durP2;ratioP2;P2;SDS_P1;SDS_P2;PMS_P1;PMS_P2;Temp;Humidity;BMP_temperature;BMP_pressure;BME280_temperature;BME280_humidity;BME280_pressure;Samples;Min_cycle;Max_cycle;Signal;HPM_P1;HPM_P2
2022/09/09 00:01:36;;;;;;;13.15;6.05;;;;;;;8.15;82.04;100745.98;1714761;83;21065;-66
2022/09/09 00:04:28;;;;;;;12.90;5.83;;;;;;;8.12;82.18;100743.42;1715256;83;21724;-66
2022/09/09 00:07:10;;;;;;;10.88;5.58;;;;;;;8.07;82.30;100734.73;1714998;83;21754;-65
2022/09/09 00:09:50;;;;;;;11.28;5.40;;;;;;;8.04;82.71;100737.42;1710108;83;21064;-66
2022/09/09 00:12:27;;;;;;;13.80;5.55;;;;;;;8.01;82.88;100727.00;1707153;83;21475;-66
2022/09/09 00:15:00;;;;;;;11.43;5.50;;;;;;;7.97;83.13;100730.55;1689310;83;21159;-67
2022/09/09 00:17:44;;;;;;;15.05;6.08;;;;;;;7.96;83.51;100726.21;1707030;83;21097;-67
2022/09/09 00:20:33;;;;;;;12.00;5.78;;;;;;;7.86;83.49;100711.50;1707267;84;21530;-66
2022/09/09 00:23:14;;;;;;;15.35;6.37;;;;;;;7.90;83.64;100731.55;1707126;84;21087;-65
2022/09/09 00:26:04;;;;;;;14.55;5.87;;;;;;;7.86;84.14;100733.34;1707474;83;21061;-67
2022/09/09 00:28:37;;;;;;;11.80;6.22;;;;;;;7.81;84.56;100735.63;1707278;83;21077;-67
2022/09/09 00:31:20;;;;;;;12.35;5.45;;;;;;;7.75;85.23;100736.16;1691798;83;21249;-67
2022/09/09 00:33:47;;;;;;;12.70;5.42;;;;;;;7.74;85.01;100734.41;1707092;83;21030;-67
2022/09/09 00:36:17;;;;;;;13.53;6.12;;;;;;;7.72;85.44;100730.94;1707612;84;21105;-65
2022/09/09 00:38:54;;;;;;;10.13;6.03;;;;;;;7.74;85.42;100728.30;1698146;83;21046;-67
2022/09/09 00:41:51;;;;;;;8.80;5.72;;;;;;;7.73;85.37;100731.80;1703531;83;21042;-66
2022/09/09 00:44:30;;;;;;;16.10;5.78;;;;;;;7.71;85.59;100739.71;1713193;83;21328;-66
2022/09/09 00:47:26;;;;;;;13.83;5.95;;;;;;;7.67;85.93;100738.47;1713258;83;21017;-66
2022/09/09 00:49:58;;;;;;;11.95;6.05;;;;;;;7.64;86.31;100748.56;1713161;82;21038;-66
2022/09/09 00:52:39;;;;;;;11.97;6.12;;;;;;;7.60;86.32;100746.01;1713057;83;21033;-65
2022/09/09 00:55:25;;;;;;;12.63;5.90;;;;;;;7.58;86.56;100744.71;1709637;83;21056;-67
2022/09/09 00:57:52;;;;;;;12.50;5.22;;;;;;;7.56;86.50;100738.17;1706935;84;21097;-67
2022/09/09 01:00:29;;;;;;;10.88;5.40;;;;;;;7.55;86.56;100739.52;1707863;83;21700;-66
2022/09/09 01:03:45;;;;;;;7.97;4.95;;;;;;;7.54;86.85;100745.64;1702762;83;21065;-67
2022/09/09 01:06:33;;;;;;;11.97;5.80;;;;;;;7.54;87.27;100747.80;1712957;82;21061;-66
2022/09/09 01:09:17;;;;;;;12.30;5.62;;;;;;;7.55;87.10;100755.25;1712923;82;21089;-68
2022/09/09 01:12:14;;;;;;;15.23;6.30;;;;;;;7.50;86.96;100751.80;1712961;83;21153;-66
2022/09/09 01:15:16;;;;;;;13.62;6.15;;;;;;;7.45;86.93;100753.63;1713008;83;21585;-65
2022/09/09 01:18:09;;;;;;;11.78;5.85;;;;;;;7.38;87.28;100751.99;1712546;83;21046;-66
2022/09/09 01:21:18;;;;;;;11.38;6.22;;;;;;;7.34;87.68;100751.19;1713241;83;21014;-66
2022/09/09 01:24:24;;;;;;;12.82;6.20;;;;;;;7.32;87.65;100754.27;1712949;83;21604;-67
2022/09/09 01:26:59;;;;;;;10.67;6.03;;;;;;;7.28;87.91;100763.91;1708895;83;21157;-67
2022/09/09 01:29:26;;;;;;;13.60;5.80;;;;;;;7.22;88.27;100760.05;1712924;82;21738;-67
2022/09/09 01:32:02;;;;;;;11.65;5.90;;;;;;;7.21;88.90;100767.50;1712829;83;21041;-66
2022/09/09 01:34:34;;;;;;;10.10;5.40;;;;;;;7.22;89.30;100770.98;1712842;82;21082;-66
2022/09/09 01:37:09;;;;;;;11.40;5.92;;;;;;;7.19;89.09;100773.65;1712961;83;21526;-65
2022/09/09 01:39:39;;;;;;;11.93;5.95;;;;;;;7.14;89.33;100765.39;1712856;83;21190;-67
2022/09/09 01:42:09;;;;;;;9.68;6.03;;;;;;;7.11;89.71;100761.52;1712930;82;21105;-66
2022/09/09 01:44:37;;;;;;;10.23;5.78;;;;;;;7.08;89.65;100761.98;1713080;83;21041;-67
2022/09/09 01:47:05;;;;;;;14.83;6.42;;;;;;;7.05;89.86;100760.72;1686114;83;21593;-65
2022/09/09 01:49:32;;;;;;;12.00;5.90;;;;;;;7.00;89.90;100759.92;1713255;83;21033;-66
2022/09/09 01:52:01;;;;;;;14.47;6.40;;;;;;;6.97;90.31;100757.32;1712266;83;21171;-66
2022/09/09 01:54:31;;;;;;;13.05;6.30;;;;;;;6.91;90.46;100754.34;1712417;82;21535;-67
2022/09/09 01:57:30;;;;;;;11.25;5.85;;;;;;;6.85;90.95;100748.72;1712897;82;21535;-66
2022/09/09 02:00:09;;;;;;;13.40;6.55;;;;;;;6.84;91.63;100753.55;1713034;83;21470;-65
2022/09/09 02:03:11;;;;;;;9.23;5.12;;;;;;;6.87;91.66;100748.72;1713035;83;21125;-65
2022/09/09 02:05:58;;;;;;;10.72;5.47;;;;;;;6.84;92.09;100749.63;1712428;82;21179;-67
2022/09/09 02:08:53;;;;;;;10.95;6.28;;;;;;;6.79;92.40;100750.58;1712961;83;21022;-66
2022/09/09 02:11:24;;;;;;;11.28;6.40;;;;;;;6.78;92.97;100745.75;1721477;82;21119;-67
2022/09/09 02:14:14;;;;;;;11.38;5.78;;;;;;;6.80;93.43;100754.91;1725315;82;21029;-66
2022/09/09 02:16:57;;;;;;;12.70;6.10;;;;;;;6.83;93.73;100750.94;1726005;83;21238;-66
2022/09/09 02:19:42;;;;;;;12.20;6.40;;;;;;;6.84;93.35;100754.86;1725716;82;21029;-65
2022/09/09 02:22:10;;;;;;;12.23;6.20;;;;;;;6.85;93.81;100756.58;1724100;82;21052;-66
2022/09/09 02:24:39;;;;;;;15.18;6.17;;;;;;;6.86;93.83;100753.09;1726092;83;21135;-67
2022/09/09 02:27:14;;;;;;;11.25;6.08;;;;;;;6.87;93.89;100751.33;1725708;82;21137;-66
2022/09/09 02:29:42;;;;;;;12.20;5.83;;;;;;;6.86;93.48;100747.00;1725370;83;21065;-67
2022/09/09 02:32:13;;;;;;;12.58;6.47;;;;;;;6.85;93.52;100755.72;1694126;83;21098;-67
2022/09/09 02:34:46;;;;;;;10.50;5.55;;;;;;;6.79;93.41;100755.36;1726118;83;21046;-68
2022/09/09 02:37:13;;;;;;;15.63;5.58;;;;;;;6.73;93.29;100752.80;1725932;82;21006;-67
2022/09/09 02:39:41;;;;;;;11.15;6.37;;;;;;;6.69;93.61;100762.87;1725644;83;21037;-66
2022/09/09 02:42:09;;;;;;;10.82;6.03;;;;;;;6.60;93.83;100757.33;1725830;83;21022;-65
2022/09/09 02:44:37;;;;;;;10.63;5.60;;;;;;;6.55;94.03;100765.64;1725784;82;21257;-66
2022/09/09 02:47:28;;;;;;;11.45;5.45;;;;;;;6.49;94.47;100767.89;1725851;82;21006;-64
2022/09/09 02:50:25;;;;;;;12.18;5.75;;;;;;;6.43;94.60;100762.70;1725992;83;21064;-65
2022/09/09 02:53:17;;;;;;;13.35;6.05;;;;;;;6.37;95.28;100765.38;1725509;82;21060;-66
2022/09/09 02:55:55;;;;;;;11.68;5.83;;;;;;;6.34;95.78;100761.48;1720961;82;21068;-65
2022/09/09 02:58:24;;;;;;;7.70;4.95;;;;;;;6.29;96.73;100760.67;1720407;83;21248;-67
2022/09/09 03:00:52;;;;;;;11.88;5.97;;;;;;;6.21;96.88;100750.30;1721483;83;21521;-66
2022/09/09 03:03:19;;;;;;;11.95;5.72;;;;;;;6.22;97.07;100759.00;1725661;83;21053;-66
2022/09/09 03:05:47;;;;;;;14.68;5.80;;;;;;;6.19;97.44;100760.31;1725862;82;21673;-67
2022/09/09 03:08:14;;;;;;;10.93;5.70;;;;;;;6.18;97.83;100762.52;1725469;83;21529;-67
2022/09/09 03:10:43;;;;;;;13.78;5.87;;;;;;;6.15;97.87;100761.25;1725705;82;21288;-67
2022/09/09 03:13:12;;;;;;;10.55;6.10;;;;;;;6.12;97.97;100759.95;1694068;83;21563;-66
2022/09/09 03:15:39;;;;;;;12.28;5.40;;;;;;;6.06;98.37;100761.73;1725932;83;21018;-67
2022/09/09 03:18:06;;;;;;;14.43;6.00;;;;;;;6.01;98.85;100765.28;1694138;83;21105;-65
2022/09/09 03:20:34;;;;;;;12.70;5.95;;;;;;;5.98;99.31;100768.80;1725815;82;21068;-66
2022/09/09 03:23:02;;;;;;;11.38;5.30;;;;;;;5.96;99.51;100767.94;1725766;82;21665;-66
2022/09/09 03:25:29;;;;;;;13.68;5.75;;;;;;;5.93;100.00;100772.27;1725650;82;21053;-65
2022/09/09 03:27:57;;;;;;;9.73;6.08;;;;;;;5.90;100.00;100773.17;1726008;83;21060;-65
2022/09/09 03:30:25;;;;;;;10.53;5.65;;;;;;;5.87;100.00;100783.66;1725667;83;21029;-67
2022/09/09 03:32:52;;;;;;;13.38;5.87;;;;;;;5.83;100.00;100782.80;1725949;83;21068;-66
2022/09/09 03:35:19;;;;;;;10.75;5.67;;;;;;;5.80;100.00;100784.59;1725728;82;21206;-66
2022/09/09 03:37:45;;;;;;;10.00;5.45;;;;;;;5.79;100.00;100778.91;1726071;83;21065;-66
2022/09/09 03:40:13;;;;;;;11.45;5.92;;;;;;;5.76;100.00;100775.02;1725883;83;21034;-68
2022/09/09 03:42:40;;;;;;;14.38;5.95;;;;;;;5.76;100.00;100781.56;1725765;83;21085;-66
2022/09/09 03:45:09;;;;;;;11.45;5.47;;;;;;;5.75;100.00;100779.80;1726102;82;21065;-66
2022/09/09 03:47:37;;;;;;;12.10;5.97;;;;;;;5.78;100.00;100771.96;1726012;83;21089;-67
2022/09/09 03:50:11;;;;;;;12.70;5.47;;;;;;;5.78;100.00;100777.19;1725981;83;21049;-66
2022/09/09 03:52:44;;;;;;;10.75;5.35;;;;;;;5.81;100.00;100784.55;1725836;83;21141;-66
2022/09/09 03:55:12;;;;;;;9.43;5.28;;;;;;;5.88;100.00;100784.08;1725364;82;21093;-67
2022/09/09 03:57:40;;;;;;;12.37;5.70;;;;;;;5.94;100.00;100784.07;1725691;83;21093;-66
2022/09/09 04:00:09;;;;;;;10.72;5.70;;;;;;;6.00;100.00;100790.54;1725673;82;21205;-66
2022/09/09 04:02:47;;;;;;;9.78;5.50;;;;;;;6.12;100.00;100796.55;1725448;82;21170;-67
2022/09/09 04:05:15;;;;;;;12.13;5.87;;;;;;;6.41;100.00;100791.08;1725935;83;21049;-67
2022/09/09 04:07:43;;;;;;;11.57;6.10;;;;;;;6.86;100.00;100794.13;1725610;82;21033;-68
2022/09/09 04:10:09;;;;;;;10.32;5.35;;;;;;;7.41;100.00;100793.86;1725915;83;21632;-67
2022/09/09 04:12:39;;;;;;;12.53;5.87;;;;;;;7.74;97.10;100796.02;1726020;83;21082;-67
2022/09/09 04:15:07;;;;;;;10.82;5.78;;;;;;;7.85;94.84;100804.19;1694235;83;21593;-66
2022/09/09 04:17:36;;;;;;;12.05;5.60;;;;;;;7.97;93.11;100798.75;1725963;82;21206;-67
2022/09/09 04:20:03;;;;;;;13.15;6.67;;;;;;;8.06;91.82;100793.36;1725945;83;20994;-66
2022/09/09 04:22:31;;;;;;;14.28;5.95;;;;;;;8.14;91.21;100788.86;1725743;82;21084;-66
2022/09/09 04:25:01;;;;;;;9.98;5.60;;;;;;;8.66;89.27;100795.44;1710034;83;21049;-66
2022/09/09 04:27:28;;;;;;;11.10;5.80;;;;;;;9.22;86.29;100786.45;1725671;83;21180;-66
2022/09/09 04:29:57;;;;;;;9.55;5.28;;;;;;;9.54;82.70;100774.80;1725778;83;21068;-66
2022/09/09 04:32:27;;;;;;;11.33;5.85;;;;;;;9.71;80.67;100773.97;1726039;83;21060;-67
2022/09/09 04:34:53;;;;;;;12.13;5.65;;;;;;;9.63;80.19;100777.22;1725681;82;21015;-67
2022/09/09 04:37:19;;;;;;;12.20;6.37;;;;;;;9.40;80.38;100787.79;1725965;83;21129;-67
2022/09/09 04:39:47;;;;;;;10.05;5.75;;;;;;;9.21;80.86;100785.15;1725794;83;21029;-67
2022/09/09 04:42:14;;;;;;;10.03;5.60;;;;;;;9.05;81.57;100795.56;1725738;83;22109;-66
2022/09/09 04:44:42;;;;;;;10.23;6.05;;;;;;;8.85;82.45;100794.17;1725571;82;21576;-69
2022/09/09 04:47:10;;;;;;;12.68;6.58;;;;;;;8.74;83.11;100807.95;1725786;82;21061;-66
2022/09/09 04:49:36;;;;;;;14.58;6.45;;;;;;;8.71;83.64;100814.13;1725912;83;21097;-66
2022/09/09 04:52:04;;;;;;;17.05;6.58;;;;;;;8.71;83.70;100813.27;1725988;83;21031;-67
2022/09/09 04:54:32;;;;;;;13.15;6.80;;;;;;;8.73;83.70;100816.74;1725707;82;21049;-67
2022/09/09 04:56:58;;;;;;;14.03;6.53;;;;;;;9.23;83.65;100814.90;1725873;82;22095;-67
2022/09/09 04:59:25;;;;;;;13.90;7.03;;;;;;;9.96;81.32;100809.78;1726093;83;21533;-67
2022/09/09 05:01:54;;;;;;;9.33;6.03;;;;;;;10.77;77.40;100810.84;1725853;82;21098;-66
2022/09/09 05:04:21;;;;;;;13.32;6.75;;;;;;;11.61;74.35;100817.23;1725780;83;21057;-68
2022/09/09 05:06:48;;;;;;;17.50;5.35;;;;;;;12.18;67.96;100817.67;1725674;82;21047;-67
2022/09/09 05:09:15;;;;;;;15.20;5.97;;;;;;;12.53;67.38;100815.63;1725637;83;21533;-68
2022/09/09 05:11:43;;;;;;;13.78;5.97;;;;;;;13.17;66.04;100808.05;1724899;82;21040;-68
2022/09/09 05:14:26;;;;;;;11.78;5.28;;;;;;;13.90;61.90;100809.30;1725653;82;21046;-68
2022/09/09 05:16:52;;;;;;;13.85;4.95;;;;;;;14.52;59.90;100814.26;1725859;83;21042;-69
2022/09/09 05:19:20;;;;;;;22.07;6.03;;;;;;;15.17;58.34;100813.17;1725792;83;21513;-70
2022/09/09 05:21:48;;;;;;;9.28;4.67;;;;;;;15.92;55.25;100807.52;1725686;82;21041;-69
2022/09/09 05:24:17;;;;;;;13.48;6.00;;;;;;;16.42;51.90;100813.42;1725918;83;21041;-68
2022/09/09 05:26:44;;;;;;;12.55;5.20;;;;;;;16.91;49.98;100812.73;1725659;83;21119;-67
2022/09/09 05:29:11;;;;;;;16.00;5.08;;;;;;;16.98;48.26;100796.38;1725639;83;21049;-69
2022/09/09 05:31:38;;;;;;;14.40;6.72;;;;;;;16.83;48.02;100797.18;1694007;83;21041;-68
2022/09/09 05:34:07;;;;;;;16.70;5.53;;;;;;;16.80;47.58;100785.38;1725204;82;21053;-67
2022/09/09 05:36:34;;;;;;;9.35;5.55;;;;;;;16.86;48.20;100781.05;1725870;83;21579;-68
2022/09/09 05:39:01;;;;;;;9.73;5.12;;;;;;;17.10;46.69;100780.70;1725707;82;21122;-69
2022/09/09 05:41:29;;;;;;;10.00;5.30;;;;;;;17.27;46.13;100778.45;1725567;82;20994;-68
2022/09/09 05:43:58;;;;;;;11.18;5.15;;;;;;;17.38;45.65;100780.91;1725626;82;21672;-68
2022/09/09 05:46:26;;;;;;;13.78;5.28;;;;;;;17.39;45.19;100791.97;1726264;83;21053;-68
2022/09/09 05:48:53;;;;;;;15.40;5.17;;;;;;;17.19;45.73;100794.84;1725712;83;20994;-69
2022/09/09 05:51:27;;;;;;;11.93;4.58;;;;;;;17.08;46.21;100793.23;1726138;82;21124;-67
2022/09/09 05:53:58;;;;;;;10.32;4.78;;;;;;;17.07;45.88;100782.18;1694151;83;21045;-69
2022/09/09 05:56:27;;;;;;;10.63;4.65;;;;;;;17.14;46.58;100772.47;1725782;82;21150;-68
2022/09/09 05:58:54;;;;;;;10.63;4.85;;;;;;;17.34;46.11;100785.16;1725534;83;21560;-68
2022/09/09 06:01:28;;;;;;;7.90;4.12;;;;;;;17.62;45.50;100791.13;1726004;82;21104;-69
2022/09/09 06:03:55;;;;;;;11.88;4.60;;;;;;;18.04;44.76;100788.37;1725605;83;21203;-67
2022/09/09 06:06:25;;;;;;;9.75;4.42;;;;;;;18.42;43.50;100792.77;1726028;82;21510;-68
2022/09/09 06:08:54;;;;;;;;;;;;;;;18.70;43.13;100798.27;1728252;82;22154;-69
2022/09/09 06:11:25;;;;;;;8.78;4.70;;;;;;;18.99;41.13;100794.72;1725654;82;20185;-68
2022/09/09 06:13:53;;;;;;;9.65;4.08;;;;;;;19.20;40.65;100798.34;1725683;83;21045;-67
2022/09/09 06:16:23;;;;;;;12.33;4.33;;;;;;;19.42;40.87;100802.72;1725981;83;21234;-68
2022/09/09 06:18:50;;;;;;;8.98;4.58;;;;;;;19.60;40.07;100795.81;1725964;83;21052;-68
2022/09/09 06:21:27;;;;;;;10.13;4.00;;;;;;;19.39;40.18;100797.55;1725716;82;21046;-68
2022/09/09 06:23:53;;;;;;;8.50;3.80;;;;;;;19.22;40.36;100805.78;1725771;83;21070;-67
2022/09/09 06:26:27;;;;;;;9.50;4.17;;;;;;;19.14;40.88;100808.95;1725829;82;21084;-66
2022/09/09 06:28:55;;;;;;;8.58;4.50;;;;;;;19.21;40.46;100806.72;1725494;82;21243;-69
2022/09/09 06:31:24;;;;;;;10.10;4.10;;;;;;;19.28;41.01;100805.41;1694337;83;21057;-69
2022/09/09 06:33:52;;;;;;;13.35;3.87;;;;;;;19.41;40.29;100799.66;1725861;82;21054;-69
2022/09/09 06:36:25;;;;;;;15.93;4.72;;;;;;;19.60;40.14;100802.48;1726075;83;21081;-69
2022/09/09 06:38:52;;;;;;;13.98;4.45;;;;;;;19.86;39.10;100798.19;1726096;83;21558;-69
2022/09/09 06:41:20;;;;;;;10.53;4.78;;;;;;;19.72;39.56;100807.09;1726136;83;21048;-70
2022/09/09 06:43:47;;;;;;;13.85;4.92;;;;;;;19.56;39.63;100806.34;1726021;82;21029;-69
2022/09/09 06:46:17;;;;;;;23.12;5.30;;;;;;;19.43;40.18;100803.09;1725965;83;21564;-67
2022/09/09 06:48:44;;;;;;;;;;;;;;;19.18;40.25;100799.77;1697090;83;21319;-67
2022/09/09 06:51:20;;;;;;;25.77;6.75;;;;;;;18.48;41.39;100812.05;1725770;83;20202;-69
2022/09/09 06:53:47;;;;;;;20.88;5.92;;;;;;;17.98;42.61;100817.55;1725306;83;21120;-67
2022/09/09 06:56:29;;;;;;;17.65;6.45;;;;;;;17.63;43.50;100810.18;1719980;83;21584;-69
2022/09/09 06:58:59;;;;;;;23.22;7.55;;;;;;;17.62;44.09;100817.77;1719076;83;21548;-68
2022/09/09 07:01:35;;;;;;;20.00;7.70;;;;;;;17.93;44.25;100813.44;1720205;82;21553;-68
2022/09/09 07:04:07;;;;;;;21.55;7.87;;;;;;;18.57;43.68;100805.69;1720171;82;21560;-68
2022/09/09 07:06:37;;;;;;;32.55;13.68;;;;;;;19.52;42.15;100810.16;1720136;83;21123;-69
2022/09/09 07:09:12;;;;;;;18.52;7.30;;;;;;;20.33;39.59;100816.41;1720536;83;21601;-69
2022/09/09 07:11:42;;;;;;;14.85;4.53;;;;;;;20.79;37.73;100811.61;1719951;83;21060;-68
2022/09/09 07:14:13;;;;;;;17.57;6.87;;;;;;;21.15;36.75;100810.38;1720344;83;21108;-69
2022/09/09 07:16:39;;;;;;;14.18;5.00;;;;;;;21.42;36.10;100817.47;1720182;83;21552;-69
2022/09/09 07:19:06;;;;;;;9.03;5.85;;;;;;;21.61;35.46;100815.66;1720354;82;21132;-68
2022/09/09 07:21:33;;;;;;;9.98;3.20;;;;;;;21.83;34.75;100820.28;1720373;82;21052;-70
2022/09/09 07:24:02;;;;;;;10.10;2.67;;;;;;;22.09;34.51;100816.19;1720256;83;21009;-69
2022/09/09 07:26:31;;;;;;;6.12;2.67;;;;;;;22.43;33.89;100812.32;1720305;83;21037;-68
2022/09/09 07:28:58;;;;;;;8.18;3.42;;;;;;;22.68;33.02;100809.47;1720457;83;21667;-68
2022/09/09 07:31:32;;;;;;;6.53;2.67;;;;;;;22.72;32.67;100810.95;1693806;83;21590;-70
2022/09/09 07:34:00;;;;;;;11.38;2.95;;;;;;;22.93;32.15;100814.28;1720262;83;21096;-69
2022/09/09 07:36:39;;;;;;;13.40;2.92;;;;;;;23.04;31.29;100818.37;1720685;82;21065;-69
2022/09/09 07:39:09;;;;;;;16.73;2.90;;;;;;;22.65;31.49;100812.40;1720292;83;21037;-68
2022/09/09 07:41:40;;;;;;;17.45;3.47;;;;;;;22.34;32.19;100806.70;1720289;82;21092;-68
2022/09/09 07:44:10;;;;;;;8.10;2.80;;;;;;;22.59;31.96;100804.81;1720527;83;21988;-68
2022/09/09 07:46:39;;;;;;;6.80;1.85;;;;;;;22.85;30.42;100807.33;1720689;83;21108;-68
2022/09/09 07:49:07;;;;;;;10.48;2.20;;;;;;;22.62;30.44;100809.96;1694138;83;21029;-69
2022/09/09 07:51:40;;;;;;;15.88;4.92;;;;;;;22.61;30.38;100812.26;1720556;83;21061;-68
2022/09/09 07:54:10;;;;;;;4.53;1.62;;;;;;;22.68;30.06;100816.67;1721663;82;21044;-69
2022/09/09 07:56:39;;;;;;;1.85;1.20;;;;;;;22.69;29.52;100805.83;1725972;83;21304;-68
2022/09/09 07:59:07;;;;;;;5.22;1.90;;;;;;;23.08;29.28;100805.56;1709587;83;21101;-68
2022/09/09 08:01:39;;;;;;;21.27;1.70;;;;;;;23.33;28.37;100805.78;1725799;83;22077;-67
2022/09/09 08:04:15;;;;;;;8.40;1.40;;;;;;;23.08;27.75;100817.16;1725641;82;21607;-68
2022/09/09 08:06:55;;;;;;;9.15;1.62;;;;;;;22.79;28.26;100821.58;1725833;82;21057;-70
2022/09/09 08:09:28;;;;;;;12.98;1.65;;;;;;;22.86;28.62;100811.72;1725965;83;21106;-69
2022/09/09 08:11:59;;;;;;;5.33;1.60;;;;;;;22.93;28.52;100812.94;1724355;83;21767;-67
2022/09/09 08:14:26;;;;;;;3.55;1.30;;;;;;;22.86;28.73;100816.59;1712925;83;21101;-68
2022/09/09 08:16:54;;;;;;;10.70;1.90;;;;;;;22.56;28.84;100799.69;1686676;83;21034;-69
2022/09/09 08:19:23;;;;;;;6.28;1.65;;;;;;;22.22;29.13;100810.28;1713002;83;21094;-68
2022/09/09 08:21:50;;;;;;;7.08;1.60;;;;;;;22.00;29.63;100805.66;1713114;82;21559;-68
2022/09/09 08:24:19;;;;;;;11.00;1.40;;;;;;;22.26;29.66;100806.41;1713073;83;21081;-69
2022/09/09 08:26:50;;;;;;;3.98;1.90;;;;;;;22.70;29.05;100799.96;1712812;83;21046;-68
2022/09/09 08:29:19;;;;;;;5.97;1.52;;;;;;;22.89;28.76;100798.03;1712868;83;21082;-69
2022/09/09 08:31:57;;;;;;;5.55;1.60;;;;;;;23.07;28.62;100792.59;1712865;82;21058;-70
2022/09/09 08:34:26;;;;;;;14.13;1.80;;;;;;;23.13;28.39;100788.09;1712985;82;21080;-66
2022/09/09 08:36:54;;;;;;;8.73;1.75;;;;;;;23.13;28.64;100781.87;1713023;83;20991;-68
2022/09/09 08:39:22;;;;;;;9.13;1.87;;;;;;;23.13;27.87;100775.16;1713107;83;21054;-69
2022/09/09 08:42:06;;;;;;;7.05;1.40;;;;;;;22.83;28.10;100785.47;1713085;83;21093;-69
2022/09/09 08:45:01;;;;;;;7.83;1.60;;;;;;;22.63;28.63;100780.79;1713019;82;21148;-69
2022/09/09 08:48:02;;;;;;;8.75;2.20;;;;;;;22.62;28.75;100779.09;1709870;83;21767;-70
2022/09/09 08:50:33;;;;;;;9.93;1.82;;;;;;;22.46;28.51;100779.91;1712954;83;21089;-69
2022/09/09 08:53:25;;;;;;;5.37;1.20;;;;;;;22.48;28.36;100800.78;1712758;83;21042;-70
2022/09/09 08:55:59;;;;;;;5.65;1.20;;;;;;;22.14;28.99;100784.51;1707818;82;21042;-70
2022/09/09 08:58:32;;;;;;;5.62;2.12;;;;;;;22.11;28.88;100776.67;1705822;83;21045;-69
2022/09/09 09:01:26;;;;;;;3.95;1.22;;;;;;;21.88;28.76;100768.55;1707001;83;21131;-69
2022/09/09 09:04:34;;;;;;;11.70;1.37;;;;;;;21.77;28.64;100776.03;1707055;84;21244;-69
2022/09/09 09:07:47;;;;;;;11.80;1.55;;;;;;;22.10;28.41;100766.92;1707130;83;21049;-68
2022/09/09 09:10:50;;;;;;;5.28;1.57;;;;;;;22.24;28.53;100769.45;1706863;84;21307;-69
2022/09/09 09:13:49;;;;;;;9.23;1.70;;;;;;;22.15;28.42;100763.41;1706890;83;21113;-69
2022/09/09 09:16:36;;;;;;;5.55;1.50;;;;;;;22.20;27.66;100755.86;1707344;84;21542;-68
2022/09/09 09:19:04;;;;;;;11.20;2.05;;;;;;;22.09;28.25;100761.20;1707147;83;21058;-69
2022/09/09 09:21:44;;;;;;;5.97;1.70;;;;;;;22.18;27.93;100759.17;1710739;83;20990;-67
2022/09/09 09:24:22;;;;;;;8.78;1.55;;;;;;;22.25;28.45;100749.71;1712866;83;21661;-68
2022/09/09 09:26:49;;;;;;;8.80;1.70;;;;;;;22.28;28.38;100749.47;1713312;83;21065;-68
2022/09/09 09:29:19;;;;;;;21.68;3.05;;;;;;;22.50;28.32;100743.78;1712979;83;21217;-69
2022/09/09 09:31:58;;;;;;;5.20;1.98;;;;;;;22.54;27.10;100744.77;1712999;83;21061;-68
2022/09/09 09:34:24;;;;;;;3.25;1.40;;;;;;;22.60;27.34;100752.84;1712579;82;21500;-70
2022/09/09 09:37:02;;;;;;;3.37;1.47;;;;;;;22.51;27.11;100746.85;1712990;83;21523;-69
2022/09/09 09:39:38;;;;;;;7.37;1.20;;;;;;;22.26;27.64;100739.34;1713170;83;21050;-70
2022/09/09 09:42:15;;;;;;;10.20;1.70;;;;;;;21.93;28.24;100756.98;1713297;83;21153;-68
2022/09/09 09:44:43;;;;;;;3.65;1.50;;;;;;;21.88;28.17;100748.44;1712678;83;21046;-69
2022/09/09 09:47:17;;;;;;;32.33;2.85;;;;;;;21.89;28.46;100755.49;1712725;83;21014;-69
2022/09/09 09:49:59;;;;;;;15.68;2.75;;;;;;;21.88;28.73;100759.16;1712641;83;21113;-69
2022/09/09 09:52:30;;;;;;;13.30;1.82;;;;;;;22.18;28.76;100763.20;1712928;83;21133;-67
2022/09/09 09:55:01;;;;;;;9.60;2.70;;;;;;;22.23;28.37;100757.02;1709324;83;21395;-69
2022/09/09 09:57:31;;;;;;;5.67;1.32;;;;;;;22.23;28.46;100764.22;1707083;84;21089;-68
2022/09/09 10:00:13;;;;;;;6.70;1.57;;;;;;;22.02;28.45;100762.61;1707047;84;21057;-68
2022/09/09 10:02:46;;;;;;;10.58;1.52;;;;;;;21.95;28.33;100752.37;1706993;84;21101;-70
2022/09/09 10:05:25;;;;;;;11.38;1.92;;;;;;;21.88;29.15;100756.48;1706749;83;21561;-68
2022/09/09 10:08:04;;;;;;;15.53;1.75;;;;;;;21.85;29.05;100741.94;1707050;84;21726;-68
2022/09/09 10:10:42;;;;;;;12.98;2.08;;;;;;;21.90;29.04;100750.98;1689370;83;21033;-69
2022/09/09 10:13:33;;;;;;;3.05;1.40;;;;;;;21.85;29.23;100748.64;1689359;83;21108;-68
2022/09/09 10:16:17;;;;;;;12.73;1.77;;;;;;;21.77;28.57;100745.69;1699150;84;21062;-69
2022/09/09 10:19:03;;;;;;;12.82;1.70;;;;;;;21.73;28.87;100757.61;1705367;83;21109;-69
2022/09/09 10:22:02;;;;;;;11.90;1.98;;;;;;;21.71;28.75;100762.22;1707077;84;21805;-69
2022/09/09 10:28:02;;;;;;;8.78;1.60;;;;;;;21.84;29.01;100753.65;1789442;79;22684;-68
2022/09/09 10:30:44;;;;;;;14.20;2.77;;;;;;;21.85;28.80;100750.47;1747795;81;21124;-68
2022/09/09 10:33:47;;;;;;;7.62;1.60;;;;;;;21.95;28.53;100761.75;1740271;82;21284;-69
2022/09/09 10:36:23;;;;;;;10.15;1.70;;;;;;;21.89;28.45;100771.58;1674917;83;21132;-69
2022/09/09 10:39:01;;;;;;;12.35;2.00;;;;;;;21.55;28.41;100751.77;1688803;83;21133;-69
2022/09/09 10:42:02;;;;;;;9.43;1.92;;;;;;;21.40;29.04;100745.72;1714092;82;21053;-69
2022/09/09 10:45:02;;;;;;;113.10;12.85;;;;;;;21.41;29.22;100752.77;1725591;82;21202;-70
2022/09/09 10:47:54;;;;;;;5.35;1.70;;;;;;;21.39;29.48;100757.35;1748249;82;22181;-68
2022/09/09 10:50:47;;;;;;;8.00;1.95;;;;;;;21.41;28.63;100757.28;1748295;82;21048;-69
2022/09/09 10:53:34;;;;;;;9.05;1.90;;;;;;;20.91;29.71;100743.83;1747814;82;21089;-69
2022/09/09 10:56:10;;;;;;;9.78;1.67;;;;;;;20.74;30.18;100749.88;1718261;83;21053;-68
2022/09/09 10:58:51;;;;;;;9.63;2.37;;;;;;;20.85;29.99;100756.33;1718429;83;21045;-68
2022/09/09 11:01:44;;;;;;;4.83;1.67;;;;;;;20.92;29.79;100756.27;1718308;83;21205;-69
2022/09/09 11:04:34;;;;;;;7.42;1.85;;;;;;;20.99;30.03;100741.47;1718118;83;21026;-69
2022/09/09 11:07:04;;;;;;;9.95;1.75;;;;;;;21.35;29.48;100745.17;1718281;83;21058;-68
2022/09/09 11:09:35;;;;;;;9.30;1.65;;;;;;;21.44;29.22;100755.25;1718278;83;21112;-68
2022/09/09 11:12:02;;;;;;;4.62;1.55;;;;;;;21.45;29.42;100741.36;1718219;83;21100;-68
2022/09/09 11:14:55;;;;;;;9.98;1.85;;;;;;;21.56;29.42;100754.34;1718405;83;21117;-69
2022/09/09 11:17:33;;;;;;;10.15;1.87;;;;;;;21.61;28.76;100755.84;1718491;83;21093;-67
2022/09/09 11:20:00;;;;;;;5.60;1.77;;;;;;;21.36;28.95;100746.87;1717490;83;21112;-68
2022/09/09 11:22:44;;;;;;;8.48;1.25;;;;;;;21.22;29.28;100737.64;1718107;83;21586;-68
2022/09/09 11:25:27;;;;;;;8.18;1.47;;;;;;;21.38;29.08;100738.23;1718118;83;21064;-68
2022/09/09 11:28:06;;;;;;;4.42;1.55;;;;;;;21.48;28.78;100735.28;1718631;83;21114;-68
2022/09/09 11:30:56;;;;;;;6.22;1.60;;;;;;;21.50;29.18;100743.22;1718715;83;21117;-69
2022/09/09 11:33:41;;;;;;;14.20;2.62;;;;;;;21.25;28.81;100744.11;1719149;83;21092;-69
2022/09/09 11:36:22;;;;;;;8.15;1.50;;;;;;;20.92;29.26;100751.76;1718873;83;21518;-70
2022/09/09 11:38:56;;;;;;;4.17;1.40;;;;;;;20.70;29.03;100744.85;1718342;83;21096;-69
2022/09/09 11:41:23;;;;;;;11.80;1.30;;;;;;;20.60;29.58;100736.61;1718425;83;21843;-68
2022/09/09 11:43:54;;;;;;;8.60;1.50;;;;;;;20.45;29.90;100745.66;1718594;83;21552;-69
2022/09/09 11:46:24;;;;;;;5.75;2.05;;;;;;;20.35;29.81;100735.22;1718355;83;21033;-68
2022/09/09 11:49:00;;;;;;;12.35;2.58;;;;;;;20.41;30.16;100729.46;1717617;83;21097;-68
2022/09/09 11:51:30;;;;;;;10.80;1.87;;;;;;;20.56;29.85;100733.77;1718351;83;21052;-68
2022/09/09 11:54:01;;;;;;;8.03;4.28;;;;;;;20.69;30.09;100739.14;1722825;82;21089;-68
2022/09/09 11:56:45;;;;;;;20.65;3.83;;;;;;;20.73;29.64;100738.81;1748175;82;21001;-68
2022/09/09 11:59:29;;;;;;;14.33;2.55;;;;;;;20.68;29.90;100730.72;1748042;82;21049;-66
2022/09/09 12:02:18;;;;;;;9.18;1.87;;;;;;;20.54;30.75;100743.68;1745271;81;21057;-68
2022/09/09 12:05:00;;;;;;;9.73;1.90;;;;;;;20.33;29.29;100754.89;1746734;82;21049;-68